CZPC

Pincher Creek Airport

Pincher Creek, , Canada
METAR CZPC 210900Z AUTO 26003KT 9SM CLR 11/09 A2995 RMK SLP130 DENSITY ALT 4200FT
Observed Flight Rules
Jun-21 @ 09:00 UTC (an hour ago) Visual Flight Rules
Wind Visibility Clouds
260° at 3 knots 9 miles
  • Clear skies
Temperatures Readings
Current 11°C / 52°F
Dewpoint 9°C / 48°F
Humidity 88%
Altimeter 29.95" Hg
Pressure 1013 hPa
Elevation 1190
METAR CZPC 210900Z AUTO 26003KT 9SM CLR 11/09 A2995 RMK SLP130 DENSITY ALT 4200FT
Observed Flight Rules
Jun-21 @ 09:00 UTC
(an hour ago)
VFR
Wind Visibility
260° at 3 knots 9 miles
Clouds
  • Clear skies
Temperature Dewpoint
11°C / 52°F 9°C / 48°F
Humidity Altimeter Pressure
88% 29.95" Hg 1013 hPa